createdAt,value
2017-04-03T00:00:28.050Z,26
2017-04-03T00:01:36.143Z,26
2017-04-03T00:02:44.228Z,26
2017-04-03T00:03:52.315Z,26
2017-04-03T00:05:00.682Z,26
2017-04-03T00:06:08.492Z,26
2017-04-03T00:07:16.585Z,26
2017-04-03T00:08:24.670Z,26
2017-04-03T00:09:32.757Z,26
2017-04-03T00:10:40.847Z,26
2017-04-03T00:11:48.937Z,26
2017-04-03T00:12:57.019Z,26
2017-04-03T00:14:05.108Z,26
2017-04-03T00:15:13.193Z,26
2017-04-03T00:16:21.279Z,26
2017-04-03T00:17:29.374Z,26
2017-04-03T00:18:37.461Z,26
2017-04-03T00:19:45.544Z,26
2017-04-03T00:20:53.636Z,26
2017-04-03T00:22:01.722Z,26
2017-04-03T00:23:09.811Z,26
2017-04-03T00:24:17.894Z,26
2017-04-03T00:25:25.984Z,26
2017-04-03T00:26:34.069Z,26
2017-04-03T00:27:42.159Z,26
2017-04-03T00:28:50.247Z,26
2017-04-03T00:29:58.337Z,26
2017-04-03T00:31:06.424Z,26
2017-04-03T00:32:14.508Z,26
2017-04-03T00:33:22.603Z,26
2017-04-03T00:34:30.684Z,26
2017-04-03T00:35:38.770Z,26
2017-04-03T00:36:46.858Z,26
2017-04-03T00:37:54.988Z,26
2017-04-03T00:39:03.031Z,26
2017-04-03T00:40:11.119Z,26
2017-04-03T00:41:19.212Z,26
2017-04-03T00:42:27.300Z,26
2017-04-03T00:43:35.387Z,26
2017-04-03T00:44:43.479Z,26
2017-04-03T00:45:51.566Z,26
2017-04-03T00:46:59.656Z,26
2017-04-03T00:48:07.741Z,26
2017-04-03T00:49:15.830Z,26
2017-04-03T00:50:23.940Z,26
2017-04-03T00:51:32.011Z,26
2017-04-03T00:52:40.098Z,26
2017-04-03T00:53:48.190Z,26
2017-04-03T00:54:56.277Z,26
2017-04-03T00:56:04.364Z,26
2017-04-03T00:57:12.455Z,26
2017-04-03T00:58:20.540Z,26
2017-04-03T00:59:28.629Z,26
2017-04-03T01:00:36.716Z,26
2017-04-03T01:01:44.806Z,26
2017-04-03T01:02:52.900Z,26
2017-04-03T01:04:00.979Z,26
2017-04-03T01:05:09.069Z,26
2017-04-03T01:06:17.153Z,26
2017-04-03T01:07:25.278Z,26
2017-04-03T01:08:33.336Z,26
2017-04-03T01:09:41.418Z,26
2017-04-03T01:10:49.509Z,26
2017-04-03T01:11:57.598Z,26
2017-04-03T01:13:05.686Z,26
2017-04-03T01:14:13.774Z,26
2017-04-03T01:15:21.863Z,26
2017-04-03T01:16:29.951Z,26
2017-04-03T01:17:38.040Z,26
2017-04-03T01:18:46.123Z,26
2017-04-03T01:19:54.209Z,26
2017-04-03T01:21:02.305Z,26
2017-04-03T01:22:10.391Z,26
2017-04-03T01:23:18.486Z,26
2017-04-03T01:24:26.572Z,26
2017-04-03T01:25:34.662Z,26
2017-04-03T01:26:42.749Z,26
2017-04-03T01:27:50.834Z,26
2017-04-03T01:28:58.927Z,26
2017-04-03T01:30:07.016Z,26
2017-04-03T01:31:15.099Z,26
2017-04-03T01:32:23.191Z,26
2017-04-03T01:33:31.279Z,26
2017-04-03T01:34:39.366Z,26
2017-04-03T01:35:47.449Z,26
2017-04-03T01:36:55.541Z,26
2017-04-03T01:38:03.628Z,26
2017-04-03T01:39:11.713Z,26
2017-04-03T01:40:19.804Z,26
2017-04-03T01:41:27.892Z,26
2017-04-03T01:42:35.978Z,26
2017-04-03T01:43:44.072Z,26
2017-04-03T01:44:52.169Z,26
2017-04-03T01:46:00.246Z,26
2017-04-03T01:47:08.331Z,26
2017-04-03T01:48:16.422Z,26
2017-04-03T01:49:24.515Z,26
2017-04-03T01:50:32.601Z,26
2017-04-03T01:51:40.693Z,26
2017-04-03T01:52:48.782Z,26
2017-04-03T01:53:56.864Z,26
2017-04-03T01:55:04.953Z,26
2017-04-03T01:56:13.042Z,26
2017-04-03T01:57:21.136Z,26
2017-04-03T01:58:29.218Z,26
2017-04-03T01:59:37.305Z,26
2017-04-03T02:00:45.395Z,26
2017-04-03T02:01:53.482Z,26
2017-04-03T02:03:01.567Z,26
2017-04-03T02:04:09.656Z,26
2017-04-03T02:05:17.742Z,26
2017-04-03T02:06:25.826Z,26
2017-04-03T02:07:33.916Z,26
2017-04-03T02:08:42.003Z,26
2017-04-03T02:09:50.093Z,26
2017-04-03T02:10:58.177Z,26
2017-04-03T02:12:06.267Z,26
2017-04-03T02:13:14.359Z,26
2017-04-03T02:14:22.449Z,26
2017-04-03T02:15:30.536Z,27
2017-04-03T02:16:38.628Z,26
2017-04-03T02:17:46.711Z,26
2017-04-03T02:18:54.797Z,27
2017-04-03T02:20:02.891Z,26
2017-04-03T02:21:10.979Z,27
2017-04-03T02:22:19.065Z,26
2017-04-03T02:23:27.154Z,26
2017-04-03T02:24:35.242Z,26
2017-04-03T02:25:43.326Z,26
2017-04-03T02:26:51.412Z,26
2017-04-03T02:27:59.502Z,26
2017-04-03T02:29:07.591Z,26
2017-04-03T02:30:15.681Z,26
2017-04-03T02:31:23.771Z,26
2017-04-03T02:32:31.860Z,26
2017-04-03T02:33:39.945Z,26
2017-04-03T02:34:48.036Z,26
2017-04-03T02:35:56.118Z,26
2017-04-03T02:37:04.204Z,26
2017-04-03T02:38:12.289Z,26
2017-04-03T02:39:20.379Z,26
2017-04-03T02:40:28.466Z,27
2017-04-03T02:41:36.550Z,26
2017-04-03T02:42:44.637Z,26
2017-04-03T02:43:52.729Z,26
2017-04-03T02:45:00.814Z,26
2017-04-03T02:46:08.899Z,26
2017-04-03T02:47:16.990Z,26
2017-04-03T02:48:25.075Z,26
2017-04-03T02:49:33.158Z,26
2017-04-03T02:50:41.255Z,26
2017-04-03T02:51:49.332Z,26
2017-04-03T02:52:57.421Z,26
2017-04-03T02:54:05.505Z,26
2017-04-03T02:55:13.594Z,26
2017-04-03T02:56:21.682Z,26
2017-04-03T02:57:29.768Z,26
2017-04-03T02:58:37.855Z,26
2017-04-03T02:59:45.943Z,26
2017-04-03T03:00:54.033Z,26
2017-04-03T03:02:02.117Z,26
2017-04-03T03:03:10.209Z,26
2017-04-03T03:04:18.300Z,26
2017-04-03T03:05:26.385Z,26
2017-04-03T03:06:34.474Z,26
2017-04-03T03:07:42.561Z,26
2017-04-03T03:08:50.650Z,27
2017-04-03T03:09:58.735Z,26
2017-04-03T03:11:06.822Z,26
2017-04-03T03:12:14.915Z,26
2017-04-03T03:13:22.992Z,27
2017-04-03T03:14:31.084Z,27
2017-04-03T03:15:39.170Z,27
2017-04-03T03:16:47.259Z,27
2017-04-03T03:17:55.349Z,27
2017-04-03T03:19:03.477Z,27
2017-04-03T03:20:11.524Z,27
2017-04-03T03:21:19.607Z,27
2017-04-03T03:22:27.695Z,27
2017-04-03T03:23:35.782Z,27
2017-04-03T03:24:43.870Z,27
2017-04-03T03:25:51.951Z,27
2017-04-03T03:27:00.043Z,27
2017-04-03T03:28:08.126Z,27
2017-04-03T03:29:16.218Z,27
2017-04-03T03:30:24.317Z,27
2017-04-03T03:31:32.392Z,27
2017-04-03T03:32:40.483Z,27
2017-04-03T03:33:48.570Z,27
2017-04-03T03:34:56.660Z,27
2017-04-03T03:36:04.754Z,26
2017-04-03T03:37:12.830Z,26
2017-04-03T03:38:20.920Z,26
2017-04-03T03:39:29.006Z,27
2017-04-03T03:40:37.093Z,26
2017-04-03T03:41:45.173Z,27
2017-04-03T03:42:53.265Z,27
2017-04-03T03:44:01.349Z,26
2017-04-03T03:45:09.433Z,27
2017-04-03T03:46:17.523Z,26
2017-04-03T03:47:25.609Z,26
2017-04-03T03:48:33.695Z,26
2017-04-03T03:49:41.776Z,26
2017-04-03T03:50:49.867Z,26
2017-04-03T03:51:57.951Z,26
2017-04-03T03:53:06.084Z,26
2017-04-03T03:54:14.127Z,26
2017-04-03T03:55:22.213Z,26
2017-04-03T03:56:30.297Z,26
2017-04-03T03:57:38.383Z,26
2017-04-03T03:58:46.473Z,26
2017-04-03T03:59:54.566Z,26
2017-04-03T04:01:02.652Z,26
2017-04-03T04:02:10.738Z,26
2017-04-03T04:03:18.826Z,26
2017-04-03T04:04:26.908Z,26
2017-04-03T04:05:35.034Z,26
2017-04-03T04:06:43.082Z,27
2017-04-03T04:07:51.169Z,26
2017-04-03T04:08:59.256Z,27
2017-04-03T04:10:07.342Z,27
2017-04-03T04:11:15.427Z,27
2017-04-03T04:12:23.514Z,27
2017-04-03T04:13:31.602Z,27
2017-04-03T04:14:39.689Z,27
2017-04-03T04:15:47.771Z,27
2017-04-03T04:16:55.859Z,27
2017-04-03T04:18:03.947Z,27
2017-04-03T04:19:12.040Z,27
2017-04-03T04:20:20.123Z,27
2017-04-03T04:21:28.213Z,27
2017-04-03T04:22:36.313Z,27
2017-04-03T04:23:44.392Z,27
2017-04-03T04:24:52.475Z,27
2017-04-03T04:26:00.565Z,27
2017-04-03T04:27:08.653Z,27
2017-04-03T04:28:16.735Z,27
2017-04-03T04:29:24.825Z,27
2017-04-03T04:30:32.910Z,27
2017-04-03T04:31:40.995Z,27
2017-04-03T04:32:49.078Z,27
2017-04-03T04:33:57.173Z,27
2017-04-03T04:35:05.259Z,27
2017-04-03T04:36:13.342Z,27
2017-04-03T04:37:21.429Z,27
2017-04-03T04:38:29.515Z,27
2017-04-03T04:39:37.598Z,27
2017-04-03T04:40:45.685Z,27
2017-04-03T04:41:53.774Z,27
2017-04-03T04:43:01.859Z,27
2017-04-03T04:44:09.942Z,28
2017-04-03T04:45:18.035Z,27
2017-04-03T04:46:26.120Z,27
2017-04-03T04:47:34.205Z,27
2017-04-03T04:48:42.292Z,27
2017-04-03T04:49:50.382Z,27
2017-04-03T04:50:58.467Z,27
2017-04-03T04:52:06.556Z,27
2017-04-03T04:53:14.642Z,28
2017-04-03T04:54:22.731Z,28
2017-04-03T04:55:30.817Z,27
2017-04-03T04:56:38.903Z,27
2017-04-03T04:57:46.987Z,27
2017-04-03T04:58:55.074Z,27
2017-04-03T05:00:03.150Z,27
2017-04-03T05:01:11.242Z,27
2017-04-03T05:02:19.329Z,28
2017-04-03T05:03:27.411Z,27
2017-04-03T05:04:35.501Z,28
2017-04-03T05:05:43.585Z,27
2017-04-03T05:06:51.675Z,27
2017-04-03T05:07:59.757Z,27
2017-04-03T05:09:07.842Z,27
2017-04-03T05:10:15.933Z,27
2017-04-03T05:11:24.018Z,27
2017-04-03T05:12:32.105Z,27
2017-04-03T05:13:40.190Z,28
2017-04-03T05:14:48.285Z,27
2017-04-03T05:15:56.360Z,28
2017-04-03T05:17:04.454Z,27
2017-04-03T05:18:12.537Z,27
2017-04-03T05:19:20.618Z,27
2017-04-03T05:20:28.712Z,27
2017-04-03T05:21:36.793Z,27
2017-04-03T05:22:44.880Z,28
2017-04-03T05:23:52.962Z,28
2017-04-03T05:25:01.055Z,28
2017-04-03T05:26:09.145Z,28
2017-04-03T05:27:17.229Z,28
2017-04-03T05:28:25.320Z,28
2017-04-03T05:29:33.407Z,28
2017-04-03T05:30:41.486Z,28
2017-04-03T05:31:49.574Z,28
2017-04-03T05:32:57.662Z,28
2017-04-03T05:34:05.750Z,28
2017-04-03T05:35:13.832Z,28
2017-04-03T05:36:22.039Z,28
2017-04-03T05:37:30.003Z,28
2017-04-03T05:38:38.088Z,28
2017-04-03T05:39:46.175Z,28
2017-04-03T05:40:54.262Z,28
2017-04-03T05:42:02.350Z,28
2017-04-03T05:43:10.435Z,28
2017-04-03T05:44:18.527Z,28
2017-04-03T05:45:26.615Z,28
2017-04-03T05:46:34.700Z,28
2017-04-03T05:47:42.780Z,28
2017-04-03T05:48:50.871Z,28
2017-04-03T05:49:58.958Z,28
2017-04-03T05:51:07.238Z,28
2017-04-03T05:52:15.130Z,28
2017-04-03T05:53:23.217Z,28
2017-04-03T05:54:31.302Z,28
2017-04-03T05:55:39.849Z,28
2017-04-03T05:56:47.474Z,28
2017-04-03T05:57:55.560Z,28
2017-04-03T05:59:03.649Z,29
2017-04-03T06:00:11.733Z,28
2017-04-03T06:01:19.817Z,28
2017-04-03T06:02:27.900Z,29
2017-04-03T06:03:35.989Z,28
2017-04-03T06:04:44.080Z,28
2017-04-03T06:05:52.171Z,29
2017-04-03T06:07:00.243Z,28
2017-04-03T06:08:08.417Z,28
2017-04-03T06:09:16.831Z,28
2017-04-03T06:10:24.508Z,28
2017-04-03T06:11:32.598Z,28
2017-04-03T06:12:40.680Z,28
2017-04-03T06:13:48.766Z,28
2017-04-03T06:14:56.846Z,28
2017-04-03T06:16:04.937Z,28
2017-04-03T06:17:13.025Z,29
2017-04-03T06:18:21.106Z,28
2017-04-03T06:19:29.205Z,29
2017-04-03T06:20:37.282Z,29
2017-04-03T06:21:45.366Z,29
2017-04-03T06:22:53.452Z,29
2017-04-03T06:24:01.540Z,29
2017-04-03T06:25:09.626Z,29
2017-04-03T06:26:17.708Z,29
2017-04-03T06:27:25.799Z,29
2017-04-03T06:28:33.883Z,29
2017-04-03T06:29:41.963Z,29
2017-04-03T06:30:50.049Z,28
2017-04-03T06:31:58.137Z,28
2017-04-03T06:33:06.245Z,29
2017-04-03T06:34:14.310Z,28
2017-04-03T06:35:22.396Z,29
2017-04-03T06:36:30.483Z,29
2017-04-03T06:37:38.569Z,29
2017-04-03T06:38:46.651Z,29
2017-04-03T06:39:54.740Z,29
2017-04-03T06:41:02.822Z,29
2017-04-03T06:42:10.909Z,29
2017-04-03T06:43:18.995Z,29
2017-04-03T06:44:27.085Z,29
2017-04-03T06:45:35.171Z,28
2017-04-03T06:46:43.255Z,29
2017-04-03T06:47:51.350Z,29
2017-04-03T06:48:59.432Z,29
2017-04-03T06:50:07.515Z,28
2017-04-03T06:51:15.609Z,28
2017-04-03T06:52:23.694Z,28
2017-04-03T06:53:31.775Z,28
2017-04-03T06:54:39.859Z,28
2017-04-03T06:55:48.012Z,29
2017-04-03T06:56:56.090Z,29
2017-04-03T06:58:04.122Z,29
2017-04-03T06:59:12.210Z,29
2017-04-03T07:00:20.302Z,29
2017-04-03T07:01:28.402Z,29
2017-04-03T07:02:36.493Z,29
2017-04-03T07:03:44.585Z,29
2017-04-03T07:04:52.669Z,29
2017-04-03T07:06:00.750Z,29
2017-04-03T07:07:08.839Z,29
2017-04-03T07:08:16.926Z,29
2017-04-03T07:09:25.012Z,29
2017-04-03T07:10:33.097Z,29
2017-04-03T07:11:41.187Z,29
2017-04-03T07:12:49.281Z,29
2017-04-03T07:13:57.354Z,29
2017-04-03T07:15:05.444Z,29
2017-04-03T07:16:13.531Z,29
2017-04-03T07:17:21.614Z,29
2017-04-03T07:18:29.702Z,29
2017-04-03T07:19:37.787Z,29
2017-04-03T07:20:45.875Z,29
2017-04-03T07:21:53.959Z,29
2017-04-03T07:23:02.045Z,29
2017-04-03T07:24:10.136Z,29
2017-04-03T07:25:18.216Z,29
2017-04-03T07:26:26.304Z,29
2017-04-03T07:27:34.391Z,29
2017-04-03T07:28:42.474Z,29
2017-04-03T07:29:50.568Z,29
2017-04-03T07:30:58.649Z,29
2017-04-03T07:32:06.772Z,29
2017-04-03T07:33:14.826Z,29
2017-04-03T07:34:22.920Z,29
2017-04-03T07:35:31.006Z,29
2017-04-03T07:36:39.091Z,29
2017-04-03T07:37:47.172Z,29
2017-04-03T07:38:55.262Z,29
2017-04-03T07:40:03.341Z,29
2017-04-03T07:41:11.433Z,29
2017-04-03T07:42:19.522Z,29
2017-04-03T07:43:27.607Z,29
2017-04-03T07:44:35.692Z,29
2017-04-03T07:45:43.774Z,29
2017-04-03T07:46:51.866Z,29
2017-04-03T07:47:59.966Z,29
2017-04-03T07:49:08.041Z,29
2017-04-03T07:50:16.124Z,29
2017-04-03T07:51:24.210Z,29
2017-04-03T07:52:32.295Z,29
2017-04-03T07:53:40.384Z,29
2017-04-03T07:54:48.474Z,29
2017-04-03T07:55:56.560Z,29
2017-04-03T07:57:04.643Z,29
2017-04-03T07:58:12.736Z,29
2017-04-03T07:59:20.815Z,29
2017-04-03T08:00:28.899Z,29
2017-04-03T08:01:36.981Z,29
2017-04-03T08:02:45.074Z,29
2017-04-03T08:03:53.156Z,29
2017-04-03T08:05:01.297Z,30
2017-04-03T08:06:09.571Z,30
2017-04-03T08:07:17.416Z,30
2017-04-03T08:08:25.503Z,30
2017-04-03T08:09:33.583Z,30
2017-04-03T08:10:41.681Z,30
2017-04-03T08:11:49.765Z,30
2017-04-03T08:12:57.859Z,30
2017-04-03T08:14:05.941Z,30
2017-04-03T08:15:14.023Z,30
2017-04-03T08:16:22.106Z,30
2017-04-03T08:17:30.194Z,30
2017-04-03T08:18:38.283Z,30
2017-04-03T08:19:46.366Z,30
2017-04-03T08:20:54.449Z,30
2017-04-03T08:22:02.536Z,30
2017-04-03T08:23:10.622Z,30
2017-04-03T08:24:18.706Z,30
2017-04-03T08:25:26.793Z,30
2017-04-03T08:26:34.878Z,29
2017-04-03T08:27:42.961Z,30
2017-04-03T08:28:51.045Z,30
2017-04-03T08:29:59.139Z,30
2017-04-03T08:31:07.225Z,30
2017-04-03T08:32:15.307Z,30
2017-04-03T08:33:23.394Z,29
2017-04-03T08:34:31.481Z,29
2017-04-03T08:35:39.569Z,30
2017-04-03T08:36:47.645Z,30
2017-04-03T08:37:55.736Z,30
2017-04-03T08:39:03.825Z,30
2017-04-03T08:40:11.911Z,30
2017-04-03T08:41:20.007Z,30
2017-04-03T08:42:28.086Z,30
2017-04-03T08:43:36.173Z,30
2017-04-03T08:44:44.255Z,30
2017-04-03T08:45:52.344Z,30
2017-04-03T08:47:00.435Z,30
2017-04-03T08:48:08.518Z,30
2017-04-03T08:49:16.609Z,30
2017-04-03T08:50:24.695Z,30
2017-04-03T08:51:32.777Z,30
2017-04-03T08:52:40.863Z,30
2017-04-03T08:53:48.954Z,30
2017-04-03T08:54:57.084Z,30
2017-04-03T08:56:05.120Z,30
2017-04-03T08:57:13.211Z,31
2017-04-03T08:58:21.299Z,30
2017-04-03T08:59:29.383Z,31
2017-04-03T09:00:37.466Z,30
2017-04-03T09:01:45.559Z,30
2017-04-03T09:02:53.645Z,30
2017-04-03T09:04:01.729Z,31
2017-04-03T09:05:09.816Z,31
2017-04-03T09:06:17.904Z,30
2017-04-03T09:07:25.985Z,30
2017-04-03T09:08:34.073Z,30
2017-04-03T09:09:42.164Z,30
2017-04-03T09:10:50.258Z,30
2017-04-03T09:11:58.332Z,30
2017-04-03T09:13:06.422Z,30
2017-04-03T09:14:14.508Z,30
2017-04-03T09:15:22.590Z,30
2017-04-03T09:16:30.679Z,30
2017-04-03T09:17:38.769Z,30
2017-04-03T09:18:46.851Z,30
2017-04-03T09:19:54.934Z,30
2017-04-03T09:21:03.020Z,30
2017-04-03T09:22:11.108Z,30
2017-04-03T09:23:19.194Z,29
2017-04-03T09:24:27.286Z,29
2017-04-03T09:25:35.373Z,29
2017-04-03T09:26:43.456Z,29
2017-04-03T09:27:51.543Z,29
2017-04-03T09:28:59.632Z,29
2017-04-03T09:30:07.761Z,29
2017-04-03T09:31:15.812Z,29
2017-04-03T09:32:23.896Z,29
2017-04-03T09:33:31.989Z,29
2017-04-03T09:34:40.072Z,29
2017-04-03T09:35:48.152Z,29
2017-04-03T09:36:56.241Z,29
2017-04-03T09:38:04.328Z,29
2017-04-03T09:39:12.411Z,29
2017-04-03T09:40:20.499Z,29
2017-04-03T09:41:28.588Z,29
2017-04-03T09:42:36.672Z,29
2017-04-03T09:43:44.756Z,29
2017-04-03T09:44:52.846Z,29
2017-04-03T09:46:00.935Z,29
2017-04-03T09:47:09.020Z,29
2017-04-03T09:48:17.101Z,29
2017-04-03T09:49:25.189Z,29
2017-04-03T09:50:33.272Z,29
2017-04-03T09:51:41.359Z,30
2017-04-03T09:52:49.450Z,29
2017-04-03T09:53:57.536Z,30
2017-04-03T09:55:05.624Z,29
2017-04-03T09:56:13.711Z,30
2017-04-03T09:57:21.795Z,30
2017-04-03T09:58:29.933Z,30
2017-04-03T09:59:37.966Z,30
2017-04-03T10:00:46.055Z,30
2017-04-03T10:01:54.138Z,30
2017-04-03T10:03:02.221Z,30
2017-04-03T10:04:10.310Z,30
2017-04-03T10:05:18.396Z,30
2017-04-03T10:06:26.480Z,30
2017-04-03T10:07:34.569Z,30
2017-04-03T10:08:42.660Z,30
2017-04-03T10:09:50.743Z,30
2017-04-03T10:10:58.829Z,30
2017-04-03T10:12:06.915Z,30
2017-04-03T10:13:14.998Z,30
2017-04-03T10:14:23.082Z,30
2017-04-03T10:15:31.183Z,30
2017-04-03T10:16:39.258Z,30
2017-04-03T10:17:47.343Z,30
2017-04-03T10:18:55.425Z,30
2017-04-03T10:20:03.514Z,30
2017-04-03T10:21:11.605Z,30
2017-04-03T10:22:19.687Z,30
2017-04-03T10:23:27.771Z,30
2017-04-03T10:24:35.861Z,30
2017-04-03T10:25:44.146Z,30
2017-04-03T10:26:52.041Z,30
2017-04-03T10:28:00.119Z,31
2017-04-03T10:29:08.241Z,31
2017-04-03T10:30:16.286Z,31
2017-04-03T10:31:24.377Z,30
2017-04-03T10:32:32.464Z,30
2017-04-03T10:33:40.555Z,31
2017-04-03T10:34:48.636Z,30
2017-04-03T10:35:56.722Z,30
2017-04-03T10:37:04.808Z,30
2017-04-03T10:38:12.888Z,30
2017-04-03T10:39:20.977Z,30
2017-04-03T10:40:29.065Z,30
2017-04-03T10:41:37.147Z,31
2017-04-03T10:42:45.238Z,31
2017-04-03T10:43:53.333Z,31
2017-04-03T10:45:01.408Z,31
2017-04-03T10:46:09.497Z,31
2017-04-03T10:47:17.584Z,31
2017-04-03T10:48:25.670Z,30
2017-04-03T10:49:33.758Z,30
2017-04-03T10:50:41.840Z,30
2017-04-03T10:51:49.930Z,30
2017-04-03T10:52:58.011Z,30
2017-04-03T10:54:06.102Z,30
2017-04-03T10:55:14.189Z,30
2017-04-03T10:56:22.272Z,30
2017-04-03T10:57:30.362Z,30
2017-04-03T10:58:38.464Z,30
2017-04-03T10:59:46.537Z,30
2017-04-03T11:00:54.623Z,30
2017-04-03T11:02:02.703Z,30
2017-04-03T11:03:10.795Z,30
2017-04-03T11:04:18.882Z,30
2017-04-03T11:05:27.001Z,30
2017-04-03T11:06:35.050Z,30
2017-04-03T11:07:43.139Z,30
2017-04-03T11:08:51.226Z,30
2017-04-03T11:09:59.305Z,30
2017-04-03T11:11:07.395Z,30
2017-04-03T11:12:15.487Z,30
2017-04-03T11:13:23.568Z,30
2017-04-03T11:14:31.652Z,30
2017-04-03T11:15:39.743Z,30
2017-04-03T11:16:47.822Z,29
2017-04-03T11:17:55.909Z,30
2017-04-03T11:19:03.999Z,30
2017-04-03T11:20:12.085Z,30
2017-04-03T11:21:20.169Z,30
2017-04-03T11:22:28.259Z,29
2017-04-03T11:23:36.349Z,29
2017-04-03T11:24:44.435Z,29
2017-04-03T11:25:52.522Z,29
2017-04-03T11:27:00.609Z,29
2017-04-03T11:28:08.697Z,29
2017-04-03T11:29:16.782Z,29
2017-04-03T11:30:24.870Z,30
2017-04-03T11:31:32.959Z,29
2017-04-03T11:32:41.044Z,30
2017-04-03T11:33:49.127Z,29
2017-04-03T11:34:57.218Z,30
2017-04-03T11:36:05.305Z,29
2017-04-03T11:37:13.388Z,30
2017-04-03T11:38:21.478Z,30
2017-04-03T11:39:29.566Z,30
2017-04-03T11:40:37.725Z,30
2017-04-03T11:41:45.730Z,30
2017-04-03T11:42:53.820Z,30
2017-04-03T11:44:01.906Z,30
2017-04-03T11:45:09.996Z,30
2017-04-03T11:46:18.088Z,30
2017-04-03T11:47:26.173Z,30
2017-04-03T11:48:34.259Z,30
2017-04-03T11:49:42.341Z,30
2017-04-03T11:50:50.433Z,30
2017-04-03T11:51:58.516Z,30
2017-04-03T11:53:06.598Z,30
2017-04-03T11:54:14.687Z,30
2017-04-03T11:55:22.773Z,30
2017-04-03T11:56:30.860Z,30
2017-04-03T11:57:38.945Z,30
2017-04-03T11:58:47.034Z,30
2017-04-03T11:59:55.119Z,30
2017-04-03T12:01:03.206Z,30
2017-04-03T12:02:11.292Z,30
2017-04-03T12:03:19.376Z,30
2017-04-03T12:04:27.460Z,30
2017-04-03T12:05:35.544Z,30
2017-04-03T12:06:43.826Z,30
2017-04-03T12:07:51.728Z,30
2017-04-03T12:08:59.814Z,30
2017-04-03T12:10:07.995Z,30
2017-04-03T12:11:16.003Z,30
2017-04-03T12:12:24.094Z,30
2017-04-03T12:13:32.176Z,30
2017-04-03T12:14:40.264Z,30
2017-04-03T12:15:48.361Z,30
2017-04-03T12:16:56.442Z,30
2017-04-03T12:18:04.533Z,30
2017-04-03T12:19:12.979Z,30
2017-04-03T12:20:20.711Z,30
2017-04-03T12:21:28.799Z,30
2017-04-03T12:22:36.886Z,30
2017-04-03T12:23:44.972Z,30
2017-04-03T12:24:53.058Z,30
2017-04-03T12:26:01.147Z,30
2017-04-03T12:27:09.320Z,30
2017-04-03T12:28:17.313Z,30
2017-04-03T12:29:25.397Z,30
2017-04-03T12:30:33.494Z,30
2017-04-03T12:31:41.580Z,30
2017-04-03T12:32:49.665Z,30
2017-04-03T12:33:57.758Z,30
2017-04-03T12:35:05.841Z,30
2017-04-03T12:36:13.936Z,30
2017-04-03T12:37:22.020Z,30
2017-04-03T12:38:30.107Z,30
2017-04-03T12:39:38.200Z,30
2017-04-03T12:40:46.281Z,30
2017-04-03T12:41:54.372Z,30
2017-04-03T12:43:02.459Z,31
2017-04-03T12:44:10.634Z,31
2017-04-03T12:45:18.633Z,30
2017-04-03T12:46:26.718Z,30
2017-04-03T12:47:34.809Z,30
2017-04-03T12:48:42.884Z,30
2017-04-03T12:49:50.973Z,30
2017-04-03T12:50:59.067Z,30
2017-04-03T12:52:07.149Z,30
2017-04-03T12:53:15.238Z,30
2017-04-03T12:54:23.327Z,30
2017-04-03T12:55:31.416Z,31
2017-04-03T12:56:39.502Z,31
2017-04-03T12:57:47.593Z,30
2017-04-03T12:58:55.677Z,30
2017-04-03T13:00:03.769Z,30
2017-04-03T13:01:11.852Z,30
2017-04-03T13:02:19.947Z,30
2017-04-03T13:03:28.034Z,30
2017-04-03T13:04:36.124Z,30
2017-04-03T13:05:44.222Z,30
2017-04-03T13:06:52.307Z,30
2017-04-03T13:08:00.391Z,31
2017-04-03T13:09:09.007Z,31
2017-04-03T13:10:17.100Z,31
2017-04-03T13:11:24.678Z,31
2017-04-03T13:12:33.046Z,30
2017-04-03T13:13:41.294Z,31
2017-04-03T13:14:49.244Z,31
2017-04-03T13:15:57.283Z,31
2017-04-03T13:17:05.283Z,31
2017-04-03T13:18:13.280Z,30
2017-04-03T13:19:21.312Z,31
2017-04-03T13:20:29.384Z,31
2017-04-03T13:21:37.478Z,30
2017-04-03T13:22:45.576Z,31
2017-04-03T13:23:53.727Z,30
2017-04-03T13:25:01.734Z,30
2017-04-03T13:26:09.819Z,30
2017-04-03T13:27:17.910Z,31
2017-04-03T13:28:25.988Z,31
2017-04-03T13:29:34.080Z,31
2017-04-03T13:30:42.164Z,31
2017-04-03T13:31:50.253Z,31
2017-04-03T13:32:58.336Z,31
2017-04-03T13:34:06.428Z,30
2017-04-03T13:35:14.511Z,30
2017-04-03T13:36:22.599Z,31
2017-04-03T13:37:30.691Z,31
2017-04-03T13:38:38.789Z,31
2017-04-03T13:39:46.868Z,31
2017-04-03T13:40:54.957Z,31
2017-04-03T13:42:03.046Z,31
2017-04-03T13:43:11.133Z,30
2017-04-03T13:44:19.234Z,31
2017-04-03T13:45:27.322Z,31
2017-04-03T13:46:35.402Z,31
2017-04-03T13:47:43.490Z,31
2017-04-03T13:48:51.573Z,31
2017-04-03T13:49:59.663Z,31
2017-04-03T13:51:07.749Z,31
2017-04-03T13:52:15.844Z,31
2017-04-03T13:53:23.928Z,31
2017-04-03T13:54:32.015Z,31
2017-04-03T13:55:40.101Z,31
2017-04-03T13:56:48.193Z,31
2017-04-03T13:57:56.282Z,30
2017-04-03T13:59:04.371Z,31
2017-04-03T14:00:12.465Z,31
2017-04-03T14:01:20.553Z,31
2017-04-03T14:02:28.641Z,31
2017-04-03T14:03:36.731Z,31
2017-04-03T14:04:44.820Z,31
2017-04-03T14:05:52.906Z,31
2017-04-03T14:07:00.988Z,31
2017-04-03T14:08:09.080Z,31
2017-04-03T14:09:17.206Z,31
2017-04-03T14:10:25.258Z,31
2017-04-03T14:11:33.339Z,31
2017-04-03T14:12:41.435Z,31
2017-04-03T14:13:49.521Z,31
2017-04-03T14:14:57.604Z,31
2017-04-03T14:16:05.694Z,31
2017-04-03T14:17:13.782Z,31
2017-04-03T14:18:21.869Z,31
2017-04-03T14:19:29.956Z,31
2017-04-03T14:20:38.046Z,31
2017-04-03T14:21:46.131Z,31
2017-04-03T14:22:54.220Z,31
2017-04-03T14:24:02.310Z,31
2017-04-03T14:25:10.399Z,31
2017-04-03T14:26:18.485Z,31
2017-04-03T14:27:26.568Z,31
2017-04-03T14:28:34.654Z,31
2017-04-03T14:29:42.743Z,31
2017-04-03T14:30:50.827Z,31
2017-04-03T14:31:58.918Z,31
2017-04-03T14:33:07.005Z,31
2017-04-03T14:34:15.094Z,31
2017-04-03T14:35:23.180Z,31
2017-04-03T14:36:31.274Z,31
2017-04-03T14:37:39.360Z,31
2017-04-03T14:38:47.442Z,31
2017-04-03T14:39:55.530Z,31
2017-04-03T14:41:03.610Z,31
2017-04-03T14:42:11.696Z,31
2017-04-03T14:43:19.784Z,31
2017-04-03T14:44:27.881Z,31
2017-04-03T14:45:35.967Z,31
2017-04-03T14:46:44.056Z,31
2017-04-03T14:47:52.151Z,31
2017-04-03T14:49:00.229Z,31
2017-04-03T14:50:08.314Z,31
2017-04-03T14:51:16.401Z,31
2017-04-03T14:52:24.492Z,31
2017-04-03T14:53:32.576Z,31
2017-04-03T14:54:40.663Z,31
2017-04-03T14:55:48.819Z,31
2017-04-03T14:56:56.837Z,31
2017-04-03T14:58:04.927Z,31
2017-04-03T14:59:13.012Z,31
2017-04-03T15:00:21.097Z,31
2017-04-03T15:01:29.184Z,31
2017-04-03T15:02:37.267Z,31
2017-04-03T15:03:45.357Z,31
2017-04-03T15:04:53.444Z,31
2017-04-03T15:06:01.535Z,31
2017-04-03T15:07:09.669Z,31
2017-04-03T15:08:17.708Z,31
2017-04-03T15:09:25.808Z,31
2017-04-03T15:10:33.880Z,31
2017-04-03T15:11:41.972Z,31
2017-04-03T15:12:50.109Z,31
2017-04-03T15:13:58.144Z,31
2017-04-03T15:15:06.240Z,32
2017-04-03T15:16:14.326Z,32
2017-04-03T15:17:22.418Z,32
2017-04-03T15:18:30.500Z,32
2017-04-03T15:19:38.591Z,33
2017-04-03T15:20:46.679Z,32
2017-04-03T15:21:54.762Z,32
2017-04-03T15:23:02.852Z,32
2017-04-03T15:24:10.948Z,32
2017-04-03T15:25:19.041Z,32
2017-04-03T15:26:27.551Z,32
2017-04-03T15:27:35.594Z,32
2017-04-03T15:28:43.751Z,32
2017-04-03T15:29:51.379Z,32
2017-04-03T15:30:59.468Z,32
2017-04-03T15:32:07.717Z,32
2017-04-03T15:33:15.640Z,32
2017-04-03T15:34:23.888Z,32
2017-04-03T15:35:31.812Z,31
2017-04-03T15:36:39.897Z,31
2017-04-03T15:37:47.979Z,32
2017-04-03T15:38:56.067Z,32
2017-04-03T15:40:04.159Z,32
2017-04-03T15:41:12.250Z,32
2017-04-03T15:42:20.337Z,32
2017-04-03T15:43:28.422Z,32
2017-04-03T15:44:36.511Z,32
2017-04-03T15:45:44.594Z,32
2017-04-03T15:46:52.682Z,32
2017-04-03T15:48:00.767Z,32
2017-04-03T15:49:08.850Z,32
2017-04-03T15:50:16.937Z,32
2017-04-03T15:51:25.026Z,31
2017-04-03T15:52:33.109Z,32
2017-04-03T15:53:41.196Z,32
2017-04-03T15:54:49.287Z,31
2017-04-03T15:55:57.369Z,32
2017-04-03T15:57:05.450Z,32
2017-04-03T15:58:13.547Z,32
2017-04-03T15:59:21.635Z,31
2017-04-03T16:00:29.722Z,31
2017-04-03T16:01:37.804Z,31
2017-04-03T16:02:45.899Z,31
2017-04-03T16:03:53.987Z,32
2017-04-03T16:05:02.073Z,32
2017-04-03T16:06:10.162Z,32
2017-04-03T16:07:18.248Z,33
2017-04-03T16:08:26.340Z,33
2017-04-03T16:09:34.423Z,33
2017-04-03T16:10:42.823Z,32